createdAt,value
2024-04-06T00:00:43.493Z,9.22
2024-04-06T00:02:43.467Z,8.78
2024-04-06T00:03:44.883Z,8.5
2024-04-06T00:04:43.480Z,8.78
2024-04-06T00:05:43.501Z,9.06
2024-04-06T00:06:43.463Z,8.61
2024-04-06T00:07:43.472Z,8.61
2024-04-06T00:08:43.494Z,8.5
2024-04-06T00:09:43.488Z,8.78
2024-04-06T00:10:43.481Z,8.39
2024-04-06T00:11:43.481Z,8.61
2024-04-06T00:12:43.489Z,8.39
2024-04-06T00:13:43.487Z,7.94
2024-04-06T00:15:43.480Z,8.11
2024-04-06T00:16:43.503Z,8.61
2024-04-06T00:17:43.470Z,8.39
2024-04-06T00:18:43.680Z,8.28
2024-04-06T00:20:43.534Z,8.39
2024-04-06T00:21:43.476Z,8.28
2024-04-06T00:22:43.493Z,8.39
2024-04-06T00:24:43.491Z,8.28
2024-04-06T00:25:43.490Z,8.39
2024-04-06T00:27:43.496Z,8.39
2024-04-06T00:29:43.493Z,8.28
2024-04-06T00:31:43.491Z,8.39
2024-04-06T00:32:43.500Z,8.11
2024-04-06T00:34:43.476Z,8.11
2024-04-06T00:35:43.506Z,8.11
2024-04-06T00:36:43.506Z,8.61
2024-04-06T00:38:43.500Z,8.5
2024-04-06T00:39:43.529Z,8.94
2024-04-06T00:40:43.500Z,8.5
2024-04-06T00:41:43.495Z,8.94
2024-04-06T00:42:43.502Z,8.61
2024-04-06T00:44:43.511Z,8.61
2024-04-06T00:45:43.493Z,8.78
2024-04-06T00:46:43.511Z,8.5
2024-04-06T00:48:43.509Z,8.78
2024-04-06T00:50:43.501Z,8.61
2024-04-06T00:51:43.530Z,8.5
2024-04-06T00:52:43.533Z,8.5
2024-04-06T00:53:43.514Z,8.61
2024-04-06T00:54:43.510Z,8.78
2024-04-06T00:55:43.524Z,8.61
2024-04-06T00:56:43.522Z,8.28
2024-04-06T00:58:43.584Z,8.61
2024-04-06T00:59:43.538Z,8.5
2024-04-06T01:00:43.529Z,8.61
2024-04-06T01:01:50.047Z,8.61
2024-04-06T01:02:43.507Z,8.78
2024-04-06T01:03:43.520Z,8.61
2024-04-06T01:04:43.529Z,8.78
2024-04-06T01:06:43.513Z,8.78
2024-04-06T01:07:43.549Z,9.06
2024-04-06T01:08:43.521Z,9.06
2024-04-06T01:09:43.527Z,8.78
2024-04-06T01:10:43.530Z,8.94
2024-04-06T01:12:43.521Z,8.94
2024-04-06T01:13:43.552Z,8.61
2024-04-06T01:14:43.542Z,8.78
2024-04-06T01:15:43.509Z,8.78
2024-04-06T01:16:43.554Z,8.78
2024-04-06T01:17:43.518Z,8.5
2024-04-06T01:18:43.544Z,8.78
2024-04-06T01:19:43.525Z,8.61
2024-04-06T01:20:43.557Z,9.06
2024-04-06T01:21:43.579Z,8.78
2024-04-06T01:22:43.522Z,8.78
2024-04-06T01:23:43.542Z,8.78
2024-04-06T01:24:43.539Z,8.78
2024-04-06T01:25:43.529Z,8.78
2024-04-06T01:26:43.533Z,8.61
2024-04-06T01:27:43.546Z,8.11
2024-04-06T01:28:43.524Z,8.28
2024-04-06T01:29:43.556Z,8.11
2024-04-06T01:30:43.535Z,7.78
2024-04-06T01:31:43.540Z,8.28
2024-04-06T01:32:43.523Z,8.11
2024-04-06T01:33:43.554Z,7.78
2024-04-06T01:34:43.559Z,7.94
2024-04-06T01:35:43.545Z,7.94
2024-04-06T01:36:43.561Z,8.11
2024-04-06T01:37:43.531Z,7.78
2024-04-06T01:38:43.534Z,8.28
2024-04-06T01:39:43.565Z,8.11
2024-04-06T01:40:43.559Z,8.11
2024-04-06T01:41:43.564Z,7.78
2024-04-06T01:42:43.535Z,8.5
2024-04-06T01:43:43.538Z,8.61
2024-04-06T01:44:43.551Z,8.61
2024-04-06T01:45:43.562Z,8.5
2024-04-06T01:47:43.547Z,8.5
2024-04-06T01:49:43.555Z,8.5
2024-04-06T01:50:43.551Z,8.61
2024-04-06T01:52:43.536Z,8.5
2024-04-06T01:53:43.544Z,8.78
2024-04-06T01:54:43.544Z,8.5
2024-04-06T01:55:43.570Z,8.11
2024-04-06T01:57:43.555Z,8.5
2024-04-06T01:58:43.559Z,8.78
2024-04-06T01:59:43.549Z,8.61
2024-04-06T02:00:43.569Z,8.61
2024-04-06T02:01:43.599Z,8.61
2024-04-06T02:02:44.201Z,8.5
2024-04-06T02:04:43.558Z,8.5
2024-04-06T02:05:43.560Z,8.61
2024-04-06T02:06:43.586Z,8.61
2024-04-06T02:07:43.560Z,8.28
2024-04-06T02:08:43.563Z,8.11
2024-04-06T02:09:43.563Z,8.39
2024-04-06T02:10:43.638Z,8.61
2024-04-06T02:11:43.599Z,8.5
2024-04-06T02:12:43.572Z,8.39
2024-04-06T02:13:43.598Z,8.61
2024-04-06T02:14:43.570Z,8.28
2024-04-06T02:15:43.576Z,8.5
2024-04-06T02:16:43.575Z,8.28
2024-04-06T02:17:43.579Z,8.11
2024-04-06T02:18:43.582Z,8.5
2024-04-06T02:19:43.572Z,8.11
2024-04-06T02:20:43.577Z,7.94
2024-04-06T02:21:43.587Z,8.11
2024-04-06T02:22:43.580Z,7.94
2024-04-06T02:23:43.618Z,8.11
2024-04-06T02:25:43.605Z,7.67
2024-04-06T02:26:43.585Z,8.28
2024-04-06T02:27:43.604Z,7.5
2024-04-06T02:28:43.585Z,8.28
2024-04-06T02:29:43.606Z,8.39
2024-04-06T02:30:43.577Z,8.28
2024-04-06T02:31:43.576Z,8.5
2024-04-06T02:32:43.595Z,8.61
2024-04-06T02:33:43.604Z,8.5
2024-04-06T02:34:43.569Z,8.61
2024-04-06T02:35:43.584Z,8.39
2024-04-06T02:37:43.585Z,8.39
2024-04-06T02:38:43.584Z,8.5
2024-04-06T02:39:43.632Z,8.39
2024-04-06T02:40:43.590Z,8.39
2024-04-06T02:41:43.621Z,8.39
2024-04-06T02:42:43.603Z,8.11
2024-04-06T02:43:43.610Z,7.94
2024-04-06T02:44:43.600Z,7.78
2024-04-06T02:45:43.594Z,8.39
2024-04-06T02:46:43.668Z,7.78
2024-04-06T02:47:43.594Z,7.78
2024-04-06T02:49:43.595Z,8.28
2024-04-06T02:51:43.610Z,7.78
2024-04-06T02:52:43.630Z,8.11
2024-04-06T02:53:43.603Z,7.5
2024-04-06T02:54:43.600Z,7.67
2024-04-06T02:55:43.656Z,7.94
2024-04-06T02:57:43.594Z,7.5
2024-04-06T02:58:43.600Z,7.5
2024-04-06T02:59:43.661Z,7.39
2024-04-06T03:00:43.594Z,7.39
2024-04-06T03:01:43.679Z,7.11
2024-04-06T03:02:43.671Z,7.5
2024-04-06T03:04:43.681Z,7.5
2024-04-06T03:06:43.721Z,7.11
2024-04-06T03:08:43.620Z,6.94
2024-04-06T03:09:43.642Z,7.22
2024-04-06T03:10:43.646Z,6.78
2024-04-06T03:11:43.670Z,7.67
2024-04-06T03:12:43.673Z,7.5
2024-04-06T03:13:43.622Z,7.78
2024-04-06T03:14:43.602Z,7.5
2024-04-06T03:15:43.761Z,7.5
2024-04-06T03:16:43.627Z,7.5
2024-04-06T03:17:43.619Z,7.22
2024-04-06T03:18:43.652Z,7.39
2024-04-06T03:19:43.623Z,7.11
2024-04-06T03:20:43.660Z,7.11
2024-04-06T03:22:43.712Z,7.22
2024-04-06T03:23:43.629Z,7.5
2024-04-06T03:24:43.623Z,7.67
2024-04-06T03:25:43.650Z,7.78
2024-04-06T03:26:43.691Z,7.5
2024-04-06T03:27:43.643Z,7.78
2024-04-06T03:28:43.624Z,7.5
2024-04-06T03:29:43.647Z,7.5
2024-04-06T03:30:43.680Z,7.94
2024-04-06T03:32:43.640Z,7.67
2024-04-06T03:33:43.625Z,7.39
2024-04-06T03:35:43.639Z,7.39
2024-04-06T03:36:43.720Z,7.78
2024-04-06T03:37:43.645Z,7.94
2024-04-06T03:38:43.655Z,7.94
2024-04-06T03:39:43.647Z,8.11
2024-04-06T03:40:43.711Z,7.78
2024-04-06T03:42:43.749Z,7.5
2024-04-06T03:43:43.664Z,7.78
2024-04-06T03:45:43.665Z,8.28
2024-04-06T03:46:43.641Z,7.94
2024-04-06T03:47:43.767Z,7.5
2024-04-06T03:49:43.692Z,7.67
2024-04-06T03:51:43.734Z,7.22
2024-04-06T03:52:43.664Z,7.78
2024-04-06T03:53:43.719Z,7.5
2024-04-06T03:54:43.772Z,7.78
2024-04-06T03:55:43.655Z,7.78
2024-04-06T03:56:43.648Z,7.78
2024-04-06T03:57:43.692Z,8.11
2024-04-06T03:58:43.680Z,7.67
2024-04-06T04:00:43.650Z,7.39
2024-04-06T04:02:43.739Z,7.67
2024-04-06T04:03:43.759Z,7.94
2024-04-06T04:05:43.656Z,7.94
2024-04-06T04:07:43.769Z,7.39
2024-04-06T04:08:43.679Z,7.94
2024-04-06T04:09:43.780Z,8.11
2024-04-06T04:10:43.714Z,7.67
2024-04-06T04:12:43.671Z,7.78
2024-04-06T04:13:43.694Z,7.94
2024-04-06T04:14:43.691Z,7.94
2024-04-06T04:15:43.726Z,8.11
2024-04-06T04:17:43.782Z,7.78
2024-04-06T04:18:43.640Z,7.94
2024-04-06T04:19:43.727Z,7.78
2024-04-06T04:20:43.698Z,7.67
2024-04-06T04:22:43.809Z,7.11
2024-04-06T04:23:43.861Z,7.67
2024-04-06T04:24:43.707Z,7.78
2024-04-06T04:25:43.661Z,7.94
2024-04-06T04:26:43.754Z,7.78
2024-04-06T04:27:43.694Z,8.28
2024-04-06T04:28:43.703Z,8.28
2024-04-06T04:29:43.735Z,7.67
2024-04-06T04:30:43.754Z,7.94
2024-04-06T04:31:43.701Z,7.67
2024-04-06T04:32:43.700Z,7.39
2024-04-06T04:33:43.723Z,7.5
2024-04-06T04:34:43.741Z,7.39
2024-04-06T04:35:43.739Z,6.78
2024-04-06T04:36:43.695Z,7.11
2024-04-06T04:37:43.674Z,6.94
2024-04-06T04:38:43.704Z,6.67
2024-04-06T04:39:43.799Z,7.22
2024-04-06T04:41:43.683Z,7.5
2024-04-06T04:42:43.657Z,7.39
2024-04-06T04:43:43.748Z,7.22
2024-04-06T04:44:49.685Z,6.94
2024-04-06T04:45:43.707Z,7.5
2024-04-06T04:46:43.680Z,6.78
2024-04-06T04:48:43.736Z,7.67
2024-04-06T04:50:43.660Z,7.39
2024-04-06T04:51:43.775Z,7.78
2024-04-06T04:52:43.715Z,7.67
2024-04-06T04:53:43.693Z,7.78
2024-04-06T04:54:43.719Z,8.11
2024-04-06T04:55:43.728Z,7.94
2024-04-06T04:56:43.715Z,7.78
2024-04-06T04:57:43.726Z,7.94
2024-04-06T04:58:43.756Z,8.28
2024-04-06T05:00:43.684Z,7.67
2024-04-06T05:02:43.824Z,7.39
2024-04-06T05:03:43.729Z,7.22
2024-04-06T05:04:43.819Z,7.67
2024-04-06T05:05:43.736Z,7.67
2024-04-06T05:06:43.743Z,7.5
2024-04-06T05:07:43.794Z,7.39
2024-04-06T05:09:43.741Z,7.22
2024-04-06T05:11:43.681Z,7.5
2024-04-06T05:12:43.738Z,6.78
2024-04-06T05:13:43.800Z,7.11
2024-04-06T05:15:43.742Z,6.67
2024-04-06T05:16:43.827Z,7.11
2024-04-06T05:18:43.679Z,7.22
2024-04-06T05:19:43.665Z,7.22
2024-04-06T05:20:43.690Z,7.11
2024-04-06T05:22:43.670Z,7.5
2024-04-06T05:23:43.712Z,7.22
2024-04-06T05:24:43.684Z,7.67
2024-04-06T05:25:43.703Z,7.78
2024-04-06T05:26:43.706Z,7.94
2024-04-06T05:27:43.697Z,8.11
2024-04-06T05:29:43.687Z,7.78
2024-04-06T05:31:43.706Z,7.94
2024-04-06T05:33:43.686Z,7.67
2024-04-06T05:34:43.726Z,7.78
2024-04-06T05:35:43.691Z,8.5
2024-04-06T05:36:43.693Z,7.94
2024-04-06T05:37:43.709Z,8.5
2024-04-06T05:38:43.700Z,8.5
2024-04-06T05:40:43.732Z,8.28
2024-04-06T05:42:43.784Z,8.11
2024-04-06T05:43:43.783Z,8.11
2024-04-06T05:44:43.708Z,8.28
2024-04-06T05:45:43.706Z,8.39
2024-04-06T05:46:43.727Z,7.94
2024-04-06T05:48:43.714Z,8.39
2024-04-06T05:49:43.702Z,7.78
2024-04-06T05:50:43.717Z,7.5
2024-04-06T05:51:43.705Z,7.22
2024-04-06T05:52:43.729Z,7.94
2024-04-06T05:53:43.722Z,8.11
2024-04-06T05:54:43.727Z,7.78
2024-04-06T05:55:43.743Z,8.39
2024-04-06T05:56:43.710Z,8.78
2024-04-06T05:58:43.724Z,9.39
2024-04-06T05:59:43.723Z,9.22
2024-04-06T06:00:43.743Z,9.06
2024-04-06T06:01:43.729Z,9.5
2024-04-06T06:02:43.743Z,9.94
2024-04-06T06:04:43.723Z,10.56
2024-04-06T06:05:43.733Z,11.44
2024-04-06T06:06:43.746Z,11.44
2024-04-06T06:07:43.746Z,11.72
2024-04-06T06:09:43.750Z,12.28
2024-04-06T06:10:43.747Z,12.56
2024-04-06T06:11:43.752Z,13.06
2024-04-06T06:12:43.735Z,12.89
2024-04-06T06:14:43.741Z,13.5
2024-04-06T06:15:43.732Z,13.5
2024-04-06T06:16:43.740Z,13.67
2024-04-06T06:17:43.722Z,13.44
2024-04-06T06:18:43.743Z,13.89
2024-04-06T06:20:43.765Z,13.67
2024-04-06T06:22:43.737Z,13.89
2024-04-06T06:23:43.752Z,13.94
2024-04-06T06:24:43.729Z,13.67
2024-04-06T06:25:43.763Z,13.67
2024-04-06T06:26:43.746Z,13.78
2024-04-06T06:28:43.735Z,13.33
2024-04-06T06:29:43.752Z,13.67
2024-04-06T06:30:43.752Z,13.94
2024-04-06T06:31:43.748Z,14.06
2024-04-06T06:33:43.745Z,13.17
2024-04-06T06:34:43.734Z,13.78
2024-04-06T06:40:43.737Z,13.78
2024-04-06T06:42:43.743Z,14.06
2024-04-06T06:43:43.766Z,13.67
2024-04-06T06:44:43.751Z,13.78
2024-04-06T06:45:43.771Z,13.94
2024-04-06T06:46:43.746Z,13.17
2024-04-06T06:47:45.226Z,12.72
2024-04-06T06:48:43.748Z,12.89
2024-04-06T06:49:43.752Z,12.56
2024-04-06T06:50:43.788Z,12.11
2024-04-06T06:52:43.747Z,11.83
2024-04-06T06:53:43.754Z,12.28
2024-04-06T06:54:43.779Z,12.56
2024-04-06T06:55:43.784Z,13.17
2024-04-06T06:57:43.749Z,12.56
2024-04-06T06:58:43.762Z,12.56
2024-04-06T07:00:43.847Z,12.56
2024-04-06T07:02:43.799Z,14.39
2024-04-06T07:03:43.772Z,15.17
2024-04-06T07:04:43.770Z,14.39
2024-04-06T07:07:43.765Z,13.67
2024-04-06T07:09:02.033Z,13.33
2024-04-06T07:10:43.779Z,14.39
2024-04-06T07:11:43.785Z,14.89
2024-04-06T07:12:43.769Z,15
2024-04-06T07:13:43.763Z,14.89
2024-04-06T07:14:43.771Z,12.72
2024-04-06T07:15:43.783Z,12.56
2024-04-06T07:16:43.777Z,12.44
2024-04-06T07:18:43.773Z,12.11
2024-04-06T07:19:43.763Z,11.83
2024-04-06T07:20:43.781Z,11.94
2024-04-06T07:21:43.769Z,12.11
2024-04-06T07:22:43.796Z,12.56
2024-04-06T07:24:43.792Z,13.17
2024-04-06T07:26:43.778Z,13.5
2024-04-06T07:27:43.766Z,13.94
2024-04-06T07:28:43.784Z,14.39
2024-04-06T07:29:43.777Z,14.28
2024-04-06T07:30:43.766Z,14.06
2024-04-06T07:31:43.796Z,13.5
2024-04-06T07:32:43.778Z,14.28
2024-04-06T07:34:43.785Z,14.06
2024-04-06T07:36:43.779Z,14.67
2024-04-06T07:39:43.784Z,15
2024-04-06T07:40:43.784Z,15
2024-04-06T07:41:43.776Z,14.67
2024-04-06T07:42:43.795Z,15.22
2024-04-06T07:43:43.782Z,14.89
2024-04-06T07:44:43.776Z,15.39
2024-04-06T07:45:43.795Z,14.89
2024-04-06T07:46:43.783Z,15.56
2024-04-06T07:47:43.813Z,15.72
2024-04-06T07:49:43.793Z,15.72
2024-04-06T07:50:43.791Z,15.22
2024-04-06T07:51:43.780Z,15.72
2024-04-06T07:52:43.807Z,15.56
2024-04-06T07:53:43.785Z,15.56
2024-04-06T07:54:43.796Z,15.22
2024-04-06T07:55:43.808Z,15.22
2024-04-06T07:57:43.800Z,14.06
2024-04-06T07:59:43.799Z,14.89
2024-04-06T08:01:43.793Z,15.39
2024-04-06T08:02:43.839Z,15.72
2024-04-06T08:04:43.808Z,15.56
2024-04-06T08:05:43.806Z,15
2024-04-06T08:06:43.858Z,14.67
2024-04-06T08:08:43.823Z,15.56
2024-04-06T08:10:43.826Z,15.22
2024-04-06T08:11:43.808Z,16.06
2024-04-06T08:12:43.823Z,16.22
2024-04-06T08:14:43.804Z,16.06
2024-04-06T08:15:43.813Z,16.67
2024-04-06T08:17:43.820Z,16.22
2024-04-06T08:18:43.808Z,15.56
2024-04-06T08:19:43.831Z,15.56
2024-04-06T08:20:43.836Z,15
2024-04-06T08:21:43.809Z,15.39
2024-04-06T08:22:43.841Z,14.39
2024-04-06T08:23:43.821Z,15
2024-04-06T08:24:43.817Z,14.39
2024-04-06T08:25:43.862Z,14.39
2024-04-06T08:26:43.851Z,15.72
2024-04-06T08:27:43.822Z,15.39
2024-04-06T08:28:43.824Z,14.39
2024-04-06T08:29:43.818Z,14.06
2024-04-06T08:31:43.822Z,14.39
2024-04-06T08:32:43.815Z,14.89
2024-04-06T08:33:43.831Z,15.89
2024-04-06T08:34:43.819Z,16.67
2024-04-06T08:35:43.840Z,15.89
2024-04-06T08:36:43.829Z,16.5
2024-04-06T08:37:43.832Z,16.83
2024-04-06T08:38:43.830Z,16.67
2024-04-06T08:39:43.833Z,17.17
2024-04-06T08:40:43.854Z,17.44
2024-04-06T08:42:43.867Z,17.17
2024-04-06T08:44:43.846Z,17.28
2024-04-06T08:45:43.834Z,17
2024-04-06T08:47:43.839Z,16.22
2024-04-06T08:48:43.835Z,16.22
2024-04-06T08:50:43.828Z,16.67
2024-04-06T08:51:43.849Z,17.17
2024-04-06T08:52:43.843Z,17.44
2024-04-06T08:53:43.848Z,18.11
2024-04-06T08:54:43.836Z,17.78
2024-04-06T08:55:43.863Z,18.28
2024-04-06T08:57:43.839Z,18.11
2024-04-06T08:58:43.850Z,18.44
2024-04-06T09:00:43.844Z,18.28
2024-04-06T09:01:43.854Z,18.56
2024-04-06T09:02:43.854Z,18.56
2024-04-06T09:03:43.853Z,18.28
2024-04-06T09:05:43.852Z,18.44
2024-04-06T09:06:43.839Z,18.28
2024-04-06T09:08:43.853Z,18.56
2024-04-06T09:10:43.852Z,18.56
2024-04-06T09:11:43.842Z,18.89
2024-04-06T09:12:43.862Z,18.56
2024-04-06T09:13:43.841Z,18.78
2024-04-06T09:14:43.846Z,19.28
2024-04-06T09:15:43.850Z,18.78
2024-04-06T09:17:43.844Z,18.78
2024-04-06T09:18:43.862Z,18.78
2024-04-06T09:20:43.870Z,18.5
2024-04-06T09:21:43.844Z,19.06
2024-04-06T09:22:43.848Z,18.56
2024-04-06T09:23:43.865Z,19.44
2024-04-06T09:24:43.864Z,19.22
2024-04-06T09:25:43.870Z,19
2024-04-06T09:26:43.867Z,19.83
2024-04-06T09:27:43.844Z,19.06
2024-04-06T09:28:43.859Z,19.28
2024-04-06T09:29:43.868Z,19.94
2024-04-06T09:30:43.855Z,18.78
2024-04-06T09:31:43.845Z,18.94
2024-04-06T09:32:43.852Z,18.78
2024-04-06T09:33:43.848Z,18.61
2024-04-06T09:34:43.908Z,19.28
2024-04-06T09:35:43.866Z,18.94
2024-04-06T09:37:43.875Z,18.94
2024-04-06T09:38:43.848Z,20.11
2024-04-06T09:39:43.889Z,20.22
2024-04-06T09:40:43.863Z,19.78
2024-04-06T09:41:43.874Z,19.78
2024-04-06T09:42:43.872Z,19.94
2024-04-06T09:43:43.889Z,19.78
2024-04-06T09:44:43.853Z,19.94
2024-04-06T09:45:43.876Z,19.78
2024-04-06T09:46:43.872Z,20.56
2024-04-06T09:47:43.877Z,21.22
2024-04-06T09:48:43.855Z,21.39
2024-04-06T09:49:43.869Z,21.39
2024-04-06T09:51:43.879Z,20.83
2024-04-06T09:52:43.858Z,20.56
2024-04-06T09:53:43.893Z,20.33
2024-04-06T09:54:43.871Z,20.56
2024-04-06T09:55:43.898Z,19.56
2024-04-06T09:56:43.861Z,18.61
2024-04-06T09:57:43.875Z,18.17
2024-04-06T09:58:43.881Z,18.28
2024-04-06T10:00:43.875Z,18.78
2024-04-06T10:02:43.866Z,17.94
2024-04-06T10:03:43.885Z,18.28
2024-04-06T10:04:43.870Z,19.06
2024-04-06T10:05:43.896Z,19.94
2024-04-06T10:07:43.884Z,19.94
2024-04-06T10:08:43.908Z,20.33
2024-04-06T10:09:43.859Z,20.72
2024-04-06T10:10:43.864Z,19.78
2024-04-06T10:11:43.904Z,19.56
2024-04-06T10:12:43.867Z,20.22
2024-04-06T10:13:43.896Z,19.28
2024-04-06T10:14:43.858Z,18.78
2024-04-06T10:15:43.880Z,19.06
2024-04-06T10:17:43.867Z,19.94
2024-04-06T10:18:43.876Z,19.44
2024-04-06T10:19:43.867Z,19.44
2024-04-06T10:20:43.881Z,19.78
2024-04-06T10:21:43.861Z,19.78
2024-04-06T10:22:43.871Z,21.72
2024-04-06T10:23:43.878Z,22.06
2024-04-06T10:24:43.877Z,21
2024-04-06T10:26:43.875Z,21.22
2024-04-06T10:27:43.884Z,20.56
2024-04-06T10:28:43.879Z,20.72
2024-04-06T10:29:43.888Z,20.56
2024-04-06T10:30:43.884Z,20.11
2024-04-06T10:31:47.304Z,19.78
2024-04-06T10:32:43.873Z,19.78
2024-04-06T10:33:43.897Z,19.78
2024-04-06T10:35:43.921Z,21
2024-04-06T10:36:43.898Z,20.72
2024-04-06T10:37:43.886Z,21.56
2024-04-06T10:38:43.892Z,22.22
2024-04-06T10:39:43.888Z,21.22
2024-04-06T10:40:43.903Z,20.22
2024-04-06T10:41:43.880Z,19.56
2024-04-06T10:42:43.886Z,19.78
2024-04-06T10:43:43.901Z,20.56
2024-04-06T10:44:43.906Z,21.89
2024-04-06T10:45:43.963Z,22.39
2024-04-06T10:46:43.885Z,22.78
2024-04-06T10:47:43.905Z,22.39
2024-04-06T10:48:43.892Z,22.22
2024-04-06T10:49:43.903Z,23.44
2024-04-06T10:50:43.922Z,23.28
2024-04-06T10:51:43.928Z,22.39
2024-04-06T10:52:43.896Z,21.89
2024-04-06T10:53:43.922Z,20.67
2024-04-06T10:54:43.931Z,20.39
2024-04-06T10:55:43.907Z,20.89
2024-04-06T10:56:43.919Z,20.56
2024-04-06T10:58:43.901Z,20.56
2024-04-06T10:59:43.936Z,21.39
2024-04-06T11:00:43.938Z,22.39
2024-04-06T11:01:43.915Z,22.61
2024-04-06T11:02:43.919Z,22.89
2024-04-06T11:03:43.924Z,24.33
2024-04-06T11:04:43.911Z,24.5
2024-04-06T11:05:43.950Z,24.33
2024-04-06T11:07:43.950Z,22.78
2024-04-06T11:08:43.919Z,22.22
2024-04-06T11:09:44.001Z,22.78
2024-04-06T11:10:43.943Z,23.67
2024-04-06T11:11:43.935Z,22.94
2024-04-06T11:12:43.941Z,22.61
2024-04-06T11:14:43.930Z,23.11
2024-04-06T11:15:43.950Z,24
2024-04-06T11:17:43.952Z,22.94
2024-04-06T11:18:43.929Z,22.06
2024-04-06T11:19:43.960Z,22.94
2024-04-06T11:20:43.955Z,23.83
2024-04-06T11:22:43.943Z,23.67
2024-04-06T11:23:43.953Z,22.61
2024-04-06T11:24:43.935Z,22.61
2024-04-06T11:25:43.948Z,22.94
2024-04-06T11:27:43.965Z,23.44
2024-04-06T11:28:43.959Z,22.39
2024-04-06T11:29:43.968Z,22.61
2024-04-06T11:30:43.941Z,23.11
2024-04-06T11:31:43.965Z,22.61
2024-04-06T11:32:43.945Z,22.61
2024-04-06T11:33:43.951Z,23.28
2024-04-06T11:34:43.960Z,24.5
2024-04-06T11:35:43.946Z,24.5
2024-04-06T11:36:43.954Z,24.5
2024-04-06T11:38:43.980Z,23.67
2024-04-06T11:39:43.950Z,23.28
2024-04-06T11:40:43.962Z,23.28
2024-04-06T11:41:43.961Z,22.94
2024-04-06T11:43:43.963Z,22.61
2024-04-06T11:44:43.957Z,22.78
2024-04-06T11:45:43.961Z,22.94
2024-04-06T11:46:43.957Z,22.78
2024-04-06T11:47:43.974Z,22.39
2024-04-06T11:48:43.963Z,23.11
2024-04-06T11:49:43.974Z,23.11
2024-04-06T11:51:43.964Z,23.83
2024-04-06T11:53:47.341Z,23.11
2024-04-06T11:54:43.969Z,24.17
2024-04-06T11:55:43.977Z,24
2024-04-06T11:57:43.973Z,23.28
2024-04-06T11:58:43.989Z,23.44
2024-04-06T11:59:43.972Z,24.17
2024-04-06T12:00:43.977Z,24.89
2024-04-06T12:02:43.966Z,25.78
2024-04-06T12:03:43.997Z,25.06
2024-04-06T12:04:43.986Z,24.5
2024-04-06T12:05:43.992Z,24.89
2024-04-06T12:06:43.995Z,25.78
2024-04-06T12:07:43.986Z,25.44
2024-04-06T12:08:43.994Z,25.61
2024-04-06T12:09:43.971Z,25.44
2024-04-06T12:10:43.978Z,26
2024-04-06T12:11:43.991Z,25.22
2024-04-06T12:12:44.024Z,25.78
2024-04-06T12:13:43.989Z,26.17
2024-04-06T12:14:44.007Z,25.61
2024-04-06T12:15:43.992Z,24.67
2024-04-06T12:17:43.996Z,24.89
2024-04-06T12:18:43.987Z,24.33
2024-04-06T12:19:44.017Z,25.06
2024-04-06T12:20:43.992Z,24.67
2024-04-06T12:21:43.991Z,25.44
2024-04-06T12:23:44.007Z,24.33
2024-04-06T12:24:43.988Z,24.5
2024-04-06T12:25:44.006Z,25.06
2024-04-06T12:26:44.001Z,24.89
2024-04-06T12:27:44.001Z,26.33
2024-04-06T12:29:44.000Z,24
2024-04-06T12:30:44.033Z,24.5
2024-04-06T12:32:44.021Z,24.5
2024-04-06T12:33:44.011Z,25.22
2024-04-06T12:34:43.993Z,26
2024-04-06T12:35:44.030Z,25.06
2024-04-06T12:36:44.030Z,25.61
2024-04-06T12:37:44.013Z,25.78
2024-04-06T12:38:44.023Z,25.44
2024-04-06T12:39:44.020Z,26.33
2024-04-06T12:40:44.019Z,26
2024-04-06T12:42:44.010Z,25.44
2024-04-06T12:43:44.014Z,26.94
2024-04-06T12:44:44.013Z,26.94
2024-04-06T12:45:44.008Z,26.89
2024-04-06T12:46:44.036Z,27.72
2024-04-06T12:47:44.023Z,27.39
2024-04-06T12:49:44.015Z,26.89
2024-04-06T12:50:44.009Z,26.56
2024-04-06T12:51:44.046Z,26.89
2024-04-06T12:52:44.035Z,26.17
2024-04-06T12:53:44.011Z,25.22
2024-04-06T12:54:44.028Z,25.61
2024-04-06T12:56:44.157Z,26
2024-04-06T12:57:44.103Z,25.22
2024-04-06T12:58:44.031Z,25.44
2024-04-06T13:00:44.021Z,25.44
2024-04-06T13:01:44.073Z,26
2024-04-06T13:02:44.022Z,26.17
2024-04-06T13:03:52.529Z,26.33
2024-04-06T13:04:44.023Z,26.33
2024-04-06T13:05:44.017Z,26.72
2024-04-06T13:06:44.033Z,27.39
2024-04-06T13:07:45.125Z,27.5
2024-04-06T13:08:44.045Z,26.94
2024-04-06T13:09:44.038Z,26.17
2024-04-06T13:11:44.045Z,26
2024-04-06T13:12:44.031Z,25.61
2024-04-06T13:13:44.040Z,25.61
2024-04-06T13:14:44.031Z,25.44
2024-04-06T13:15:44.049Z,25.61
2024-04-06T13:16:44.034Z,25.06
2024-04-06T13:17:44.026Z,26
2024-04-06T13:18:44.027Z,25.22
2024-04-06T13:19:44.036Z,25.22
2024-04-06T13:20:44.030Z,25.44
2024-04-06T13:21:44.031Z,26.17
2024-04-06T13:22:44.025Z,26.56
2024-04-06T13:23:44.065Z,26.72
2024-04-06T13:24:44.044Z,26.89
2024-04-06T13:25:44.052Z,26.94
2024-04-06T13:26:44.051Z,26.33
2024-04-06T13:28:44.049Z,26.78
2024-04-06T13:30:44.035Z,26.17
2024-04-06T13:32:44.049Z,26.56
2024-04-06T13:34:44.048Z,26
2024-04-06T13:35:44.043Z,26.33
2024-04-06T13:36:44.049Z,26.56
2024-04-06T13:37:44.051Z,26.56
2024-04-06T13:38:44.040Z,26.83
2024-04-06T13:41:44.056Z,26.72
2024-04-06T13:43:44.054Z,26.17
2024-04-06T13:44:44.047Z,26.72
2024-04-06T13:45:44.046Z,26.33
2024-04-06T13:46:44.108Z,26
2024-04-06T13:47:44.046Z,26.72
2024-04-06T13:48:44.087Z,27.39
2024-04-06T13:50:44.066Z,26.72
2024-04-06T13:51:44.054Z,26.94
2024-04-06T13:52:44.050Z,27.17
2024-04-06T13:53:44.064Z,27.17
2024-04-06T13:54:44.057Z,27.39
2024-04-06T13:55:44.076Z,27.5
2024-04-06T13:56:44.072Z,26.94
2024-04-06T13:58:44.072Z,27.5
2024-04-06T14:00:44.099Z,27.72
2024-04-06T14:02:44.086Z,27.72
2024-04-06T14:03:44.079Z,27.72
2024-04-06T14:05:44.088Z,26.83
2024-04-06T14:06:44.062Z,26.72
2024-04-06T14:07:44.066Z,26.56
2024-04-06T14:08:44.074Z,26.56
2024-04-06T14:10:44.088Z,25.78
2024-04-06T14:11:44.096Z,26.56
2024-04-06T14:13:44.078Z,26.56
2024-04-06T14:14:44.089Z,26.72
2024-04-06T14:16:44.073Z,26.17
2024-04-06T14:17:44.066Z,26.56
2024-04-06T14:18:44.083Z,26.83
2024-04-06T14:20:44.082Z,26.17
2024-04-06T14:21:44.090Z,26.83
2024-04-06T14:22:44.066Z,26.56
2024-04-06T14:23:44.082Z,27.17
2024-04-06T14:24:44.072Z,26.72
2024-04-06T14:25:44.098Z,27.39
2024-04-06T14:26:44.074Z,26.72
2024-04-06T14:27:44.098Z,27.39
2024-04-06T14:28:44.075Z,27.39
2024-04-06T14:29:44.085Z,27.5
2024-04-06T14:30:44.081Z,27.17
2024-04-06T14:31:44.079Z,26.56
2024-04-06T14:32:44.076Z,26.72
2024-04-06T14:33:44.090Z,26.72
2024-04-06T14:34:44.097Z,26.56
2024-04-06T14:35:44.145Z,26.72
2024-04-06T14:37:44.081Z,27.94
2024-04-06T14:38:44.087Z,28.56
2024-04-06T14:40:44.206Z,28.89
2024-04-06T14:41:44.075Z,29.11
2024-04-06T14:42:44.083Z,29.11
2024-04-06T14:43:44.116Z,30.11
2024-04-06T14:44:44.089Z,30.5
2024-04-06T14:45:44.083Z,30.89
2024-04-06T14:46:44.114Z,31.33
2024-04-06T14:47:44.095Z,32.78
2024-04-06T14:49:44.113Z,30.89
2024-04-06T14:50:44.088Z,30.72
2024-04-06T14:51:44.121Z,29.5
2024-04-06T14:52:44.088Z,30.28
2024-04-06T14:53:44.108Z,30.72
2024-04-06T14:54:44.104Z,30.89
2024-04-06T14:56:44.099Z,29.89
2024-04-06T14:57:44.090Z,29.72
2024-04-06T14:58:44.096Z,29.72
2024-04-06T14:59:44.107Z,29.89
2024-04-06T15:00:44.121Z,30.11
2024-04-06T15:01:44.106Z,31.11
2024-04-06T15:02:44.102Z,31.11
2024-04-06T15:03:44.101Z,31.11
2024-04-06T15:04:44.096Z,31.11
2024-04-06T15:05:44.113Z,30.5
2024-04-06T15:07:44.138Z,31.33
2024-04-06T15:09:44.108Z,31.72
2024-04-06T15:10:44.105Z,31.11
2024-04-06T15:11:44.110Z,31.11
2024-04-06T15:12:44.100Z,30.72
2024-04-06T15:13:44.099Z,31.11
2024-04-06T15:14:44.094Z,31.72
2024-04-06T15:15:44.185Z,31.11
2024-04-06T15:17:44.336Z,30.72
2024-04-06T15:18:44.112Z,31.5
2024-04-06T15:19:44.095Z,31.72
2024-04-06T15:20:44.102Z,31.94
2024-04-06T15:21:44.129Z,30.89
2024-04-06T15:22:44.177Z,31.72
2024-04-06T15:24:44.111Z,31.33
2024-04-06T15:25:44.134Z,32.17
2024-04-06T15:26:44.092Z,30.89
2024-04-06T15:27:44.108Z,30.11
2024-04-06T15:29:44.108Z,30.28
2024-04-06T15:30:44.097Z,30.28
2024-04-06T15:31:44.116Z,30.89
2024-04-06T15:32:44.192Z,30.11
2024-04-06T15:33:44.099Z,29.28
2024-04-06T15:34:44.119Z,29.28
2024-04-06T15:35:44.114Z,29.11
2024-04-06T15:37:44.117Z,29.89
2024-04-06T15:39:44.128Z,30.72
2024-04-06T15:40:44.100Z,30.72
2024-04-06T15:41:44.119Z,30.5
2024-04-06T15:42:44.100Z,30.72
2024-04-06T15:43:44.129Z,30.11
2024-04-06T15:44:44.106Z,29.5
2024-04-06T15:45:44.110Z,29.5
2024-04-06T15:46:44.091Z,30.28
2024-04-06T15:47:44.125Z,29.89
2024-04-06T15:48:44.120Z,29.28
2024-04-06T15:49:44.120Z,29.28
2024-04-06T15:51:44.114Z,29.11